• Join FlightAware (Why Join?)
  • Login
  • US Flag 
12:25AM EST


 

Airport Tracker/Info


-or-


 

Live Flight TrackerFlight Track Log ✈ SWA2854 ✈ 13-Feb-2013 ✈ KMHT - KBWI

Flight Track Log - Related Links

Times and Time Zones

All times are in EST time to prevent confusion due to time zone crossing. See the SWA2854 flight status page for this flight to view local times or setup timezone preferences in your user account.

Time Position Orientation Groundspeed Altitude Reporting Facility
EST Latitude Longitude Course Direction KTS MPH feet Rate Location/Type
06:53PM 42.9500 -71.4333 336° Northwest 150 173 1,200  Level KA90
06:54PM 43.0089 -71.4692 336° Northwest 206 237 4,700 2,880 Climbing Boston Center
06:55PM 43.0311 -71.3919 68° East 170 196 7,600 2,940 Climbing Boston Center
06:56PM 43.0425 -71.2781 82° East 262 302 10,600 2,700 Climbing Boston Center
06:57PM 43.0597 -71.1272 81° East 340 391 13,100 2,580 Climbing Boston Center
06:58PM 43.0414 -70.9969 101° East 379 436 15,800 2,700 Climbing Boston Center
06:59PM 42.9467 -70.9083 146° Southeast 378 435 18,500 2,520 Climbing Boston Center
07:00PM 42.8575 -70.9417 195° South 331 381 20,900 2,400 Climbing Boston Center
07:01PM 42.7558 -70.9950 201° Southwest 342 394 23,400 2,400 Climbing Boston Center
07:02PM 42.6544 -71.0428 199° South 370 426 25,800 2,280 Climbing Boston Center
07:03PM 42.5508 -71.0958 201° Southwest 384 442 28,000 2,940 Climbing Boston Center
07:04PM 42.4872 -71.1928 228° Southwest 367 422 31,700 3,000 Climbing Boston Center
07:05PM 42.4425 -71.2950 239° Southwest 336 387 34,000 1,140 Climbing Boston Center
07:06PM 42.3936 -71.3944 236° Southwest 326 375 34,000  Level Boston Center
07:07PM 42.3464 -71.4906 236° Southwest 321 369 34,000  Level Boston Center
07:08PM 42.2889 -71.5981 234° Southwest 321 369 34,000  Level Boston Center
07:09PM 42.2394 -71.6942 235° Southwest 321 369 34,000  Level Boston Center
07:10PM 42.1922 -71.7928 237° Southwest 321 369 34,000  Level Boston Center
07:11PM 42.1428 -71.8914 236° Southwest 316 364 34,000  Level Boston Center
07:12PM 42.0953 -71.9897 237° Southwest 316 364 34,000  Level Boston Center
07:13PM 42.0517 -72.0739 235° Southwest 316 364 34,000  Level Boston Center
07:14PM 42.0042 -72.1692 236° Southwest 316 364 34,000  Level Boston Center
07:15PM 41.9564 -72.2642 236° Southwest 311 358 34,000  Level Boston Center
07:16PM 41.9086 -72.3592 236° Southwest 311 358 34,000  Level Boston Center
07:17PM 41.8586 -72.4542 235° Southwest 311 358 34,000  Level Boston Center
07:18PM 41.8106 -72.5514 236° Southwest 311 358 34,000  Level Boston Center
07:19PM 41.7644 -72.6461 237° Southwest 311 358 34,000  Level Boston Center
07:20PM 41.7164 -72.7406 236° Southwest 311 358 34,000  Level Boston Center
07:21PM 41.6661 -72.8347 234° Southwest 311 358 34,000  Level Boston Center
07:22PM 41.6178 -72.9289 236° Southwest 311 358 34,000  Level Boston Center
07:23PM 41.5714 -73.0228 237° Southwest 311 358 34,000  Level Boston Center
07:25PM 41.4911 -73.1808 236° Southwest 282 325 34,000  Level New York Center
07:26PM 41.4433 -73.2731 235° Southwest 299 344 34,000  Level New York Center
07:27PM 41.3956 -73.3653 235° Southwest 304 350 34,000  Level New York Center
07:28PM 41.3456 -73.4603 235° Southwest 304 350 34,000  Level New York Center
07:29PM 41.2997 -73.5522 236° Southwest 304 350 34,000  Level New York Center
07:30PM 41.2475 -73.6411 232° Southwest 304 350 34,000  Level New York Center
07:31PM 41.1953 -73.7297 232° Southwest 310 357 34,000  Level New York Center
07:32PM 41.1389 -73.8236 231° Southwest 310 357 34,000  Level New York Center
07:33PM 41.0844 -73.9119 231° Southwest 315 362 34,000 -600 Level New York Center
07:34PM 41.0342 -74.0033 234° Southwest 315 362 32,800 -1,260 Descending New York Center
07:35PM 40.9817 -74.0886 231° Southwest 310 357 31,500 -1,320 Descending New York Center
07:36PM 40.9164 -74.1897 230° Southwest 319 367 30,200 -1,200 Descending New York Center
07:37PM 40.8614 -74.2858 233° Southwest 326 375 29,200 -1,020 Descending New York Center
07:38PM 40.8044 -74.3789 231° Southwest 326 375 28,300 -600 Descending New York Center
07:39PM 40.7494 -74.4689 231° Southwest 326 375 28,000 -240 Descending New York Center
07:40PM 40.6925 -74.5617 231° Southwest 326 375 27,900 -960 Descending New York Center
07:41PM 40.6375 -74.6489 230° Southwest 326 375 26,200 -2,700 Descending New York Center
07:42PM 40.5781 -74.7467 231° Southwest 331 381 22,600 -2,760 Descending New York Center
07:43PM 40.5164 -74.8386 229° Southwest 336 387 20,700 -1,740 Descending New York Center
07:44PM 40.4575 -74.9197 226° Southwest 330 380 19,100 -900 Descending New York Center
07:45PM 40.4047 -74.9928 227° Southwest 325 374 19,000 -60 Descending New York Center
07:46PM 40.3389 -75.0842 227° Southwest 320 368 19,000  Level New York Center
07:47PM 40.2794 -75.1703 228° Southwest 315 362 19,000  Level New York Center
07:48PM 40.2178 -75.2614 228° Southwest 331 381 19,000  Level New York Center
07:49PM 40.1497 -75.3494 225° Southwest 346 398 19,000  Level New York Center
07:50PM 40.0878 -75.4375 227° Southwest 346 398 19,000  Level New York Center
07:51PM 40.0261 -75.5203 226° Southwest 326 375 19,000  Level New York Center
07:52PM 39.9689 -75.6003 227° Southwest 321 369 19,000  Level New York Center
07:53PM 39.9089 -75.6881 228° Southwest 322 371 19,000 -120 Level New York Center
07:54PM 39.8636 -75.7742 236° Southwest 328 377 18,800 -1,320 Descending New York Center
07:56PM 39.7667 -75.9667 237° Southwest 291 335 15,200 -1,860 Descending Potomac TRACON
07:57PM 39.7333 -76.0333 237° Southwest 283 326 13,400 -1,620 Descending Potomac TRACON
07:58PM 39.6833 -76.1167 232° Southwest 267 307 12,000 -1,740 Descending Potomac TRACON
07:59PM 39.6500 -76.2000 243° Southwest 263 303 9,800 -2,100 Descending Potomac TRACON
08:00PM 39.6000 -76.2833 232° Southwest 269 310 7,900 -1,800 Descending Potomac TRACON
08:01PM 39.5667 -76.3667 243° Southwest 264 304 6,300 -1,740 Descending Potomac TRACON
08:02PM 39.5333 -76.4500 243° Southwest 265 305 4,500 -1,260 Descending Potomac TRACON
08:03PM 39.5000 -76.5333 243° Southwest 259 298 4,000 -300 Descending Potomac TRACON
08:04PM 39.4667 -76.6000 237° Southwest 252 290 4,000  Level Potomac TRACON
08:05PM 39.4167 -76.6833 232° Southwest 262 302 4,000  Level Potomac TRACON
08:06PM 39.3833 -76.7667 243° Southwest 258 297 4,000  Level Potomac TRACON
08:07PM 39.3500 -76.8333 237° Southwest 232 267 4,000  Level Potomac TRACON
08:08PM 39.3000 -76.8833 218° Southwest 233 268 4,000 -300 Level Potomac TRACON
08:09PM 39.2333 -76.9000 191° South 181 208 3,400 -480 Descending Potomac TRACON
08:10PM 39.2000 -76.8667 142° Southeast 180 207 3,000 -600 Descending Potomac TRACON
08:11PM 39.1833 -76.8167 113° Southeast 181 208 2,300 -840 Descending Potomac TRACON
08:12PM 39.1833 -76.7667 90° East 142 163 1,500 -780 Descending Potomac TRACON
08:13PM 39.1833 -76.7167 90° East 125 144 800 -720 Descending Potomac TRACON
08:15PM 39.1667 -76.6667 270° West  Level FlightAware Approximate
08:22PM 39.1754 -76.6683 270° West  Level Estimated
08:23PM 39.1754 -76.6683 270° West  Level Estimated
08:24PM 39.1754 -76.6683 270° West  Level Estimated
08:25PM 39.1754 -76.6683 270° West  Level Estimated
08:26PM 39.1754 -76.6683 270° West  Level Estimated
08:27PM 39.1754 -76.6683 270° West  Level Estimated